createdAt,value
2016-02-26T00:00:09.591Z,76.5
2016-02-26T00:01:09.593Z,76.12
2016-02-26T00:02:09.597Z,76.68
2016-02-26T00:03:09.568Z,76.78
2016-02-26T00:04:09.571Z,76.78
2016-02-26T00:05:09.557Z,76.21
2016-02-26T00:06:09.560Z,76.21
2016-02-26T00:07:09.563Z,76.12
2016-02-26T00:08:09.550Z,76.21
2016-02-26T00:09:09.537Z,76.21
2016-02-26T00:10:09.555Z,76.12
2016-02-26T00:11:09.558Z,76.59
2016-02-26T00:12:09.529Z,76.59
2016-02-26T00:13:09.517Z,76.5
2016-02-26T00:14:09.519Z,76.59
2016-02-26T00:15:09.507Z,76.4
2016-02-26T00:16:09.540Z,76.78
2016-02-26T00:17:09.497Z,76.68
2016-02-26T00:18:09.499Z,76.4
2016-02-26T00:19:09.502Z,76.78
2016-02-26T00:20:09.489Z,76.59
2016-02-26T00:21:09.492Z,76.78
2016-02-26T00:22:09.510Z,76.4
2016-02-26T00:23:09.466Z,77.15
2016-02-26T00:24:09.468Z,77.15
2016-02-26T00:25:09.471Z,76.4
2016-02-26T00:26:09.458Z,76.97
2016-02-26T00:27:09.444Z,76.87
2016-02-26T00:28:09.448Z,76.97
2016-02-26T00:29:09.435Z,76.87
2016-02-26T00:30:09.437Z,77.06
2016-02-26T00:31:09.440Z,77.15
2016-02-26T00:32:09.427Z,76.5
2016-02-26T00:33:09.415Z,77.25
2016-02-26T00:34:09.417Z,76.97
2016-02-26T00:35:09.404Z,76.68
2016-02-26T00:36:09.407Z,76.87
2016-02-26T00:37:09.393Z,76.78
2016-02-26T00:38:09.396Z,76.78
2016-02-26T00:39:09.398Z,76.59
2016-02-26T00:40:09.386Z,76.97
2016-02-26T00:41:09.389Z,76.78
2016-02-26T00:42:09.392Z,76.5
2016-02-26T00:43:09.378Z,76.5
2016-02-26T00:44:09.365Z,76.78
2016-02-26T00:45:09.368Z,76.59
2016-02-26T00:46:09.356Z,76.31
2016-02-26T00:47:09.358Z,76.78
2016-02-26T00:48:09.345Z,76.97
2016-02-26T00:49:09.332Z,76.5
2016-02-26T00:50:09.335Z,76.78
2016-02-26T00:51:09.338Z,76.68
2016-02-26T00:52:09.325Z,76.78
2016-02-26T00:53:09.312Z,76.78
2016-02-26T00:54:09.314Z,76.68
2016-02-26T00:55:09.317Z,76.78
2016-02-26T00:56:09.319Z,76.87
2016-02-26T00:57:09.291Z,76.78
2016-02-26T00:58:09.294Z,76.59
2016-02-26T00:59:09.281Z,76.78
2016-02-26T01:00:09.300Z,76.68
2016-02-26T01:01:09.286Z,76.78
2016-02-26T01:02:09.273Z,76.97
2016-02-26T01:03:09.260Z,76.97
2016-02-26T01:04:09.264Z,77.06
2016-02-26T01:05:09.251Z,76.31
2016-02-26T01:06:09.238Z,76.97
2016-02-26T01:07:09.240Z,76.97
2016-02-26T01:08:09.243Z,76.97
2016-02-26T01:09:09.229Z,76.4
2016-02-26T01:10:09.217Z,76.97
2016-02-26T01:11:09.220Z,76.5
2016-02-26T01:12:09.211Z,76.97
2016-02-26T01:13:09.186Z,76.5
2016-02-26T01:14:09.176Z,77.15
2016-02-26T01:15:09.151Z,77.15
2016-02-26T01:16:09.173Z,76.97
2016-02-26T01:17:09.124Z,76.59
2016-02-26T01:18:09.122Z,77.53
2016-02-26T01:19:09.121Z,77.34
2016-02-26T01:20:09.103Z,76.68
2016-02-26T01:21:09.086Z,77.25
2016-02-26T01:22:09.088Z,76.87
2016-02-26T01:23:09.073Z,77.53
2016-02-26T01:24:09.058Z,77.06
2016-02-26T01:25:09.059Z,77.31
2016-02-26T01:26:09.060Z,76.78
2016-02-26T01:27:09.047Z,77.34
2016-02-26T01:28:09.033Z,76.78
2016-02-26T01:29:09.035Z,76.74
2016-02-26T01:30:09.021Z,77.21
2016-02-26T01:31:09.023Z,76.97
2016-02-26T01:32:09.010Z,77.25
2016-02-26T01:33:08.997Z,77.4
2016-02-26T01:34:08.999Z,78.53
2016-02-26T01:35:09.003Z,78.81
2016-02-26T01:36:08.990Z,77.97
2016-02-26T01:37:08.993Z,77.5
2016-02-26T01:38:09.010Z,77.59
2016-02-26T01:39:08.998Z,78.06
2016-02-26T01:40:08.954Z,78.16
2016-02-26T01:41:08.957Z,77.4
2016-02-26T01:42:08.959Z,77.59
2016-02-26T01:43:08.946Z,77.59
2016-02-26T01:44:08.949Z,77.69
2016-02-26T01:45:08.935Z,77.69
2016-02-26T01:46:08.938Z,77.69
2016-02-26T01:47:08.941Z,77.59
2016-02-26T01:48:08.929Z,77.69
2016-02-26T01:49:08.915Z,77.97
2016-02-26T01:50:08.918Z,77.69
2016-02-26T01:51:08.905Z,77.4
2016-02-26T01:52:08.892Z,77.5
2016-02-26T01:53:08.895Z,77.97
2016-02-26T01:54:08.898Z,77.5
2016-02-26T01:55:08.916Z,77.4
2016-02-26T01:56:08.887Z,77.69
2016-02-26T01:57:08.875Z,77.31
2016-02-26T01:58:08.862Z,77.5
2016-02-26T01:59:08.864Z,77.5
2016-02-26T02:00:08.867Z,77.5
2016-02-26T02:01:08.838Z,77.31
2016-02-26T02:02:08.841Z,77.4
2016-02-26T02:03:08.844Z,77.4
2016-02-26T02:04:08.830Z,77.59
2016-02-26T02:05:08.818Z,77.59
2016-02-26T02:06:08.821Z,77.69
2016-02-26T02:07:08.808Z,77.5
2016-02-26T02:08:08.810Z,77.5
2016-02-26T02:09:08.829Z,77.59
2016-02-26T02:10:08.799Z,77.78
2016-02-26T02:11:08.788Z,77.59
2016-02-26T02:12:08.790Z,77.87
2016-02-26T02:13:08.793Z,77.59
2016-02-26T02:14:08.779Z,77.59
2016-02-26T02:15:08.766Z,77.4
2016-02-26T02:16:08.769Z,77.4
2016-02-26T02:17:08.756Z,77.59
2016-02-26T02:18:08.759Z,77.5
2016-02-26T02:19:08.746Z,78.16
2016-02-26T02:20:08.733Z,77.97
2016-02-26T02:21:08.736Z,77.97
2016-02-26T02:22:08.739Z,78.16
2016-02-26T02:23:08.725Z,77.87
2016-02-26T02:24:08.728Z,78.34
2016-02-26T02:25:08.731Z,78.25
2016-02-26T02:26:08.718Z,78.44
2016-02-26T02:27:08.705Z,78.44
2016-02-26T02:28:08.692Z,78.63
2016-02-26T02:29:08.695Z,78.44
2016-02-26T02:30:08.682Z,78.44
2016-02-26T02:31:08.669Z,78.25
2016-02-26T02:32:08.672Z,78.25
2016-02-26T02:33:08.674Z,78.06
2016-02-26T02:34:08.662Z,78.44
2016-02-26T02:35:08.664Z,78.63
2016-02-26T02:36:08.652Z,78.25
2016-02-26T02:37:08.638Z,78.25
2016-02-26T02:38:08.641Z,78.06
2016-02-26T02:39:08.627Z,78.16
2016-02-26T02:40:08.615Z,78.44
2016-02-26T02:41:08.633Z,78.25
2016-02-26T02:42:08.605Z,78.44
2016-02-26T02:43:08.608Z,78.25
2016-02-26T02:44:08.594Z,78.06
2016-02-26T02:45:08.596Z,78.16
2016-02-26T02:46:08.599Z,78.16
2016-02-26T02:47:08.588Z,78.34
2016-02-26T02:48:08.574Z,78.53
2016-02-26T02:49:08.577Z,78.34
2016-02-26T02:50:08.579Z,78.63
2016-02-26T02:51:08.567Z,78.34
2016-02-26T02:52:08.553Z,77.87
2016-02-26T02:53:08.540Z,77.97
2016-02-26T02:54:08.543Z,77.69
2016-02-26T02:55:08.546Z,77.87
2016-02-26T02:56:08.549Z,78.25
2016-02-26T02:57:08.536Z,77.78
2016-02-26T02:58:08.522Z,78.06
2016-02-26T02:59:08.509Z,78.34
2016-02-26T03:00:08.513Z,77.87
2016-02-26T03:01:08.500Z,77.87
2016-02-26T03:02:08.503Z,78.06
2016-02-26T03:03:08.505Z,78.2
2016-02-26T03:04:08.492Z,77.91
2016-02-26T03:05:08.495Z,77.59
2016-02-26T03:06:08.565Z,77.44
2016-02-26T03:07:08.474Z,77.63
2016-02-26T03:08:08.477Z,77.44
2016-02-26T03:09:08.480Z,77.44
2016-02-26T03:10:08.452Z,77.44
2016-02-26T03:11:08.454Z,77.82
2016-02-26T03:12:08.442Z,77.53
2016-02-26T03:13:08.444Z,77.44
2016-02-26T03:14:08.447Z,77.53
2016-02-26T03:15:08.434Z,77.63
2016-02-26T03:16:08.483Z,77.63
2016-02-26T03:17:08.424Z,77.72
2016-02-26T03:18:08.410Z,77.44
2016-02-26T03:19:08.413Z,77.44
2016-02-26T03:20:08.400Z,77.53
2016-02-26T03:21:08.403Z,77.15
2016-02-26T03:22:08.390Z,77.34
2016-02-26T03:23:08.393Z,77.44
2016-02-26T03:24:08.379Z,77.53
2016-02-26T03:25:08.383Z,77.34
2016-02-26T03:26:08.385Z,77.44
2016-02-26T03:27:08.373Z,77.53
2016-02-26T03:28:08.406Z,77.44
2016-02-26T03:29:08.362Z,77.25
2016-02-26T03:30:08.349Z,77.72
2016-02-26T03:31:08.368Z,77.44
2016-02-26T03:32:08.339Z,77.63
2016-02-26T03:33:08.326Z,77.53
2016-02-26T03:34:08.328Z,77.72
2016-02-26T03:35:08.331Z,77.53
2016-02-26T03:36:08.318Z,77.72
2016-02-26T03:37:08.305Z,77.72
2016-02-26T03:38:08.309Z,77.72
2016-02-26T03:39:08.311Z,77.63
2016-02-26T03:40:08.298Z,77.82
2016-02-26T03:41:08.285Z,77.78
2016-02-26T03:42:08.319Z,77.63
2016-02-26T03:43:08.306Z,77.82
2016-02-26T03:44:08.278Z,77.72
2016-02-26T03:45:08.264Z,77.82
2016-02-26T03:46:08.267Z,77.63
2016-02-26T03:47:08.254Z,77.82
2016-02-26T03:48:08.257Z,77.82
2016-02-26T03:49:08.244Z,77.53
2016-02-26T03:50:08.262Z,77.44
2016-02-26T03:51:08.234Z,77.44
2016-02-26T03:52:08.236Z,77.25
2016-02-26T03:53:08.223Z,77.53
2016-02-26T03:54:08.226Z,77.44
2016-02-26T03:55:07.526Z,77.44
2016-02-26T03:56:08.247Z,77.72
2016-02-26T03:57:08.204Z,77.63
2016-02-26T03:58:08.206Z,77.44
2016-02-26T03:59:08.193Z,77.53
2016-02-26T04:00:08.211Z,77.63
2016-02-26T04:01:09.151Z,77.63
2016-02-26T04:02:08.185Z,77.34
2016-02-26T04:03:08.313Z,77.44
2016-02-26T04:04:08.159Z,77.44
2016-02-26T04:05:08.162Z,77.72
2016-02-26T04:06:08.195Z,77.72
2016-02-26T04:07:08.167Z,77.72
2016-02-26T04:08:08.154Z,77.53
2016-02-26T04:09:08.156Z,77.72
2016-02-26T04:10:08.144Z,77.63
2016-02-26T04:11:08.147Z,77.72
2016-02-26T04:12:08.133Z,77.72
2016-02-26T04:13:08.183Z,77.63
2016-02-26T04:14:08.125Z,77.44
2016-02-26T04:15:08.127Z,77.34
2016-02-26T04:16:08.114Z,77.53
2016-02-26T04:17:07.975Z,77.53
2016-02-26T04:18:08.103Z,77.72
2016-02-26T04:19:08.105Z,77.72
2016-02-26T04:20:08.093Z,77.91
2016-02-26T04:21:09.221Z,77.63
2016-02-26T04:22:08.083Z,77.72
2016-02-26T04:23:08.163Z,77.82
2016-02-26T04:24:08.072Z,77.72
2016-02-26T04:25:08.059Z,77.72
2016-02-26T04:26:08.062Z,77.72
2016-02-26T04:27:08.066Z,77.63
2016-02-26T04:28:08.068Z,77.91
2016-02-26T04:29:08.055Z,77.72
2016-02-26T04:30:08.057Z,77.91
2016-02-26T04:31:08.045Z,77.91
2016-02-26T04:32:08.047Z,77.63
2016-02-26T04:33:08.097Z,77.63
2016-02-26T04:34:14.928Z,77.82
2016-02-26T04:35:08.024Z,77.53
2016-02-26T04:36:08.026Z,77.72
2016-02-26T04:37:08.014Z,77.44
2016-02-26T04:38:08.016Z,77.44
2016-02-26T04:39:08.003Z,77.53
2016-02-26T04:40:08.007Z,77.44
2016-02-26T04:41:07.993Z,77.63
2016-02-26T04:42:07.995Z,77.63
2016-02-26T04:43:07.998Z,77.53
2016-02-26T04:44:07.986Z,77.53
2016-02-26T04:45:07.973Z,77.34
2016-02-26T04:46:07.976Z,77.63
2016-02-26T04:47:07.963Z,77.44
2016-02-26T04:48:07.981Z,77.44
2016-02-26T04:49:07.952Z,77.63
2016-02-26T04:50:07.955Z,77.44
2016-02-26T04:51:07.957Z,77.53
2016-02-26T04:52:08.022Z,77.72
2016-02-26T04:53:07.948Z,77.53
2016-02-26T04:54:07.966Z,78.01
2016-02-26T04:55:09.109Z,77.82
2016-02-26T04:56:07.940Z,77.91
2016-02-26T04:57:07.926Z,78.1
2016-02-26T04:58:07.914Z,78.01
2016-02-26T04:59:07.917Z,78.2
2016-02-26T05:00:08.029Z,78.2
2016-02-26T05:01:07.922Z,77.72
2016-02-26T05:02:07.909Z,77.91
2016-02-26T05:03:07.912Z,77.72
2016-02-26T05:04:07.898Z,77.53
2016-02-26T05:05:07.891Z,77.44
2016-02-26T05:06:07.894Z,77.34
2016-02-26T05:07:07.882Z,77.63
2016-02-26T05:08:07.884Z,77.44
2016-02-26T05:09:07.871Z,77.63
2016-02-26T05:10:07.890Z,77.72
2016-02-26T05:11:07.893Z,77.91
2016-02-26T05:12:07.848Z,77.72
2016-02-26T05:13:07.851Z,77.76
2016-02-26T05:14:07.854Z,77.48
2016-02-26T05:15:07.840Z,77.39
2016-02-26T05:16:07.859Z,77.39
2016-02-26T05:17:07.830Z,77.76
2016-02-26T05:18:07.834Z,77.29
2016-02-26T05:19:07.836Z,77.29
2016-02-26T05:20:07.667Z,77.2
2016-02-26T05:21:07.825Z,77.2
2016-02-26T05:22:07.812Z,77.1
2016-02-26T05:23:07.815Z,77.29
2016-02-26T05:24:07.802Z,77.67
2016-02-26T05:25:07.820Z,77.2
2016-02-26T05:26:07.808Z,77.1
2016-02-26T05:27:07.795Z,77.39
2016-02-26T05:28:07.797Z,77.48
2016-02-26T05:29:07.800Z,76.82
2016-02-26T05:30:07.771Z,77.48
2016-02-26T05:31:07.775Z,77.39
2016-02-26T05:32:07.777Z,77.01
2016-02-26T05:33:07.779Z,77.48
2016-02-26T05:34:07.610Z,76.91
2016-02-26T05:35:07.785Z,76.72
2016-02-26T05:36:07.772Z,77.01
2016-02-26T05:37:07.760Z,77.2
2016-02-26T05:38:07.746Z,76.72
2016-02-26T05:39:07.749Z,76.72
2016-02-26T05:40:07.751Z,77.2
2016-02-26T05:41:07.738Z,77.01
2016-02-26T05:42:07.740Z,76.91
2016-02-26T05:43:07.728Z,77.01
2016-02-26T05:44:07.746Z,77.01
2016-02-26T05:45:07.718Z,77.01
2016-02-26T05:46:07.721Z,77.1
2016-02-26T05:47:07.708Z,77.2
2016-02-26T05:48:07.711Z,77.29
2016-02-26T05:49:07.714Z,77.2
2016-02-26T05:50:07.717Z,77.01
2016-02-26T05:51:07.703Z,77.2
2016-02-26T05:52:07.690Z,77.01
2016-02-26T05:53:07.693Z,77.2
2016-02-26T05:54:07.696Z,76.63
2016-02-26T05:55:07.683Z,76.82
2016-02-26T05:56:07.685Z,77.01
2016-02-26T05:57:07.673Z,76.82
2016-02-26T05:58:07.659Z,76.82
2016-02-26T05:59:07.661Z,76.82
2016-02-26T06:00:07.649Z,76.63
2016-02-26T06:01:07.652Z,76.44
2016-02-26T06:02:07.655Z,76.91
2016-02-26T06:03:07.642Z,76.63
2016-02-26T06:04:07.644Z,76.82
2016-02-26T06:05:07.663Z,76.63
2016-02-26T06:06:07.477Z,76.82
2016-02-26T06:07:07.637Z,76.91
2016-02-26T06:08:07.624Z,76.63
2016-02-26T06:09:07.627Z,76.63
2016-02-26T06:10:07.629Z,76.82
2016-02-26T06:11:07.616Z,76.72
2016-02-26T06:12:07.618Z,76.82
2016-02-26T06:13:07.606Z,76.25
2016-02-26T06:14:07.609Z,76.25
2016-02-26T06:15:07.596Z,76.44
2016-02-26T06:16:07.583Z,76.06
2016-02-26T06:17:07.585Z,76.15
2016-02-26T06:18:07.588Z,76.72
2016-02-26T06:19:07.590Z,76.44
2016-02-26T06:20:07.578Z,76.34
2016-02-26T06:21:07.580Z,76.15
2016-02-26T06:22:07.568Z,76.15
2016-02-26T06:23:07.570Z,76.15
2016-02-26T06:24:07.558Z,76.15
2016-02-26T06:25:07.560Z,76.15
2016-02-26T06:26:07.563Z,75.96
2016-02-26T06:27:07.566Z,76.34
2016-02-26T06:28:07.552Z,76.25
2016-02-26T06:29:07.556Z,76.15
2016-02-26T06:30:07.542Z,76.06
2016-02-26T06:31:07.545Z,76.82
2016-02-26T06:32:07.532Z,76.06
2016-02-26T06:33:07.535Z,76.25
2016-02-26T06:34:07.537Z,76.06
2016-02-26T06:35:07.525Z,76.15
2016-02-26T06:36:07.527Z,76.06
2016-02-26T06:37:07.514Z,76.25
2016-02-26T06:38:07.501Z,76.15
2016-02-26T06:39:07.504Z,76.25
2016-02-26T06:40:07.506Z,76.25
2016-02-26T06:41:07.494Z,76.06
2016-02-26T06:42:07.497Z,75.68
2016-02-26T06:43:07.495Z,75.96
2016-02-26T06:44:07.482Z,75.96
2016-02-26T06:45:07.485Z,75.87
2016-02-26T06:46:07.489Z,75.49
2016-02-26T06:47:07.475Z,76.15
2016-02-26T06:48:07.477Z,76.15
2016-02-26T06:49:07.480Z,75.96
2016-02-26T06:50:07.467Z,75.49
2016-02-26T06:51:07.470Z,75.31
2016-02-26T06:52:07.457Z,75.31
2016-02-26T06:53:07.460Z,75.49
2016-02-26T06:54:07.447Z,75.87
2016-02-26T06:55:07.450Z,75.96
2016-02-26T06:56:07.468Z,75.4
2016-02-26T06:57:07.438Z,75.4
2016-02-26T06:58:07.441Z,75.31
2016-02-26T06:59:07.444Z,75.87
2016-02-26T07:00:07.432Z,75.78
2016-02-26T07:01:07.435Z,75.21
2016-02-26T07:02:07.421Z,75.49
2016-02-26T07:03:07.424Z,75.21
2016-02-26T07:04:07.426Z,75.49
2016-02-26T07:05:07.414Z,75.21
2016-02-26T07:06:07.417Z,75.4
2016-02-26T07:07:07.420Z,75.49
2016-02-26T07:08:07.407Z,75.43
2016-02-26T07:09:07.409Z,75.53
2016-02-26T07:10:07.395Z,75.12
2016-02-26T07:11:07.398Z,75.24
2016-02-26T07:12:07.418Z,75.34
2016-02-26T07:13:07.389Z,75.15
2016-02-26T07:14:07.392Z,75.05
2016-02-26T07:15:07.378Z,74.96
2016-02-26T07:16:07.381Z,75.34
2016-02-26T07:17:07.383Z,75.05
2016-02-26T07:18:07.370Z,75.62
2016-02-26T07:19:07.372Z,75.05
2016-02-26T07:20:07.361Z,75.34
2016-02-26T07:21:07.364Z,75.05
2016-02-26T07:22:07.366Z,75.53
2016-02-26T07:23:07.353Z,75.15
2016-02-26T07:24:07.355Z,75.43
2016-02-26T07:25:07.359Z,75.43
2016-02-26T07:26:07.361Z,74.87
2016-02-26T07:27:07.349Z,75.05
2016-02-26T07:28:07.351Z,75.15
2016-02-26T07:29:07.338Z,75.15
2016-02-26T07:30:07.356Z,74.68
2016-02-26T07:31:07.343Z,74.4
2016-02-26T07:32:07.329Z,74.49
2016-02-26T07:33:07.333Z,74.49
2016-02-26T07:34:07.336Z,74.49
2016-02-26T07:35:07.323Z,74.58
2016-02-26T07:36:07.326Z,74.4
2016-02-26T07:37:07.312Z,74.49
2016-02-26T07:38:07.315Z,74.49
2016-02-26T07:39:07.302Z,74.58
2016-02-26T07:40:07.305Z,74.49
2016-02-26T07:41:07.307Z,74.3
2016-02-26T07:42:07.310Z,73.92
2016-02-26T07:43:07.312Z,74.11
2016-02-26T07:44:07.300Z,74.21
2016-02-26T07:45:07.286Z,74.21
2016-02-26T07:46:07.290Z,74.21
2016-02-26T07:47:07.293Z,73.64
2016-02-26T07:48:07.295Z,73.64
2016-02-26T07:49:07.283Z,73.54
2016-02-26T07:50:07.285Z,73.54
2016-02-26T07:51:07.319Z,73.73
2016-02-26T07:52:07.274Z,72.41
2016-02-26T07:53:08.434Z,72.6
2016-02-26T07:54:08.202Z,72.5
2016-02-26T07:55:07.267Z,72.88
2016-02-26T07:56:08.410Z,72.63
2016-02-26T07:57:08.194Z,72.92
2016-02-26T07:58:07.759Z,73.01
2016-02-26T07:59:07.263Z,72.44
2016-02-26T08:00:08.672Z,72.82
2016-02-26T08:01:07.908Z,72.73
2016-02-26T08:02:07.255Z,72.92
2016-02-26T08:03:07.241Z,72.73
2016-02-26T08:04:07.494Z,72.16
2016-02-26T08:05:08.012Z,72.25
2016-02-26T08:06:07.249Z,72.63
2016-02-26T08:07:07.252Z,72.53
2016-02-26T08:08:07.240Z,72.06
2016-02-26T08:09:07.243Z,72.44
2016-02-26T08:10:07.229Z,72.16
2016-02-26T08:11:07.232Z,72.92
2016-02-26T08:12:07.235Z,72.92
2016-02-26T08:13:07.237Z,73.11
2016-02-26T08:14:07.225Z,72.53
2016-02-26T08:15:07.228Z,73.11
2016-02-26T08:16:07.230Z,73.11
2016-02-26T08:17:07.233Z,73.01
2016-02-26T08:18:07.220Z,72.34
2016-02-26T08:19:07.222Z,72.53
2016-02-26T08:20:07.209Z,72.53
2016-02-26T08:21:07.056Z,71.97
2016-02-26T08:22:07.449Z,71.97
2016-02-26T08:23:07.295Z,72.16
2016-02-26T08:24:07.408Z,72.06
2016-02-26T08:25:07.348Z,72.06
2016-02-26T08:26:08.100Z,71.97
2016-02-26T08:27:08.291Z,72.06
2016-02-26T08:28:07.419Z,71.88
2016-02-26T08:29:07.671Z,72.06
2016-02-26T08:30:07.580Z,71.97
2016-02-26T08:31:07.489Z,72.16
2016-02-26T08:32:07.179Z,71.59
2016-02-26T08:33:07.541Z,71.78
2016-02-26T08:34:07.575Z,71.78
2016-02-26T08:35:07.452Z,71.78
2016-02-26T08:36:08.112Z,71.97
2016-02-26T08:37:07.162Z,71.78
2016-02-26T08:38:07.648Z,71.97
2016-02-26T08:39:07.604Z,71.59
2016-02-26T08:40:07.481Z,71.59
2016-02-26T08:41:07.172Z,71.4
2016-02-26T08:42:07.440Z,71.78
2016-02-26T08:43:07.443Z,71.31
2016-02-26T08:44:07.711Z,71.62
2016-02-26T08:45:07.887Z,71.78
2016-02-26T08:46:08.045Z,71.44
2016-02-26T08:47:08.189Z,70.78
2016-02-26T08:48:08.081Z,70.97
2016-02-26T08:49:08.022Z,71.06
2016-02-26T08:50:08.353Z,70.97
2016-02-26T08:51:07.230Z,71.44
2016-02-26T08:52:07.264Z,70.87
2016-02-26T08:53:07.845Z,71.15
2016-02-26T08:54:08.972Z,71.34
2016-02-26T08:55:08.444Z,70.49
2016-02-26T08:56:07.916Z,70.97
2016-02-26T08:57:08.216Z,70.97
2016-02-26T08:58:07.264Z,70.97
2016-02-26T08:59:08.392Z,70.78
2016-02-26T09:00:08.817Z,69.92
2016-02-26T09:01:07.147Z,70.3
2016-02-26T09:02:07.150Z,70.3
2016-02-26T09:03:07.138Z,70.3
2016-02-26T09:04:07.125Z,70.01
2016-02-26T09:05:06.971Z,70.3
2016-02-26T09:06:07.130Z,69.26
2016-02-26T09:07:07.133Z,68.98
2016-02-26T09:08:07.120Z,68.79
2016-02-26T09:09:07.123Z,68.59
2016-02-26T09:10:07.126Z,68.12
2016-02-26T09:11:07.128Z,68.02
2016-02-26T09:12:07.131Z,67.65
2016-02-26T09:13:07.118Z,68.25
2016-02-26T09:14:07.151Z,66.54
2016-02-26T09:15:07.217Z,65.59
2016-02-26T09:16:07.126Z,65.69
2016-02-26T09:17:07.113Z,66.83
2016-02-26T09:18:07.131Z,66.83
2016-02-26T09:19:07.118Z,66.54
2016-02-26T09:20:07.121Z,66.16
2016-02-26T09:21:07.123Z,65.69
2016-02-26T09:22:07.111Z,65.97
2016-02-26T09:23:07.175Z,66.93
2016-02-26T09:24:07.116Z,65.88
2016-02-26T09:25:08.369Z,66.26
2016-02-26T09:26:07.355Z,66.74
2016-02-26T09:27:07.108Z,67.4
2016-02-26T09:28:07.111Z,67.21
2016-02-26T09:29:07.130Z,66.83
2016-02-26T09:30:07.132Z,66.64
2016-02-26T09:31:07.119Z,66.54
2016-02-26T09:32:07.122Z,65.69
2016-02-26T09:33:07.155Z,65.03
2016-02-26T09:34:07.111Z,64.74
2016-02-26T09:35:07.114Z,63.89
2016-02-26T09:36:07.116Z,63.79
2016-02-26T09:37:07.119Z,63.89
2016-02-26T09:38:07.825Z,63.42
2016-02-26T09:39:21.204Z,62.66
2016-02-26T09:40:07.112Z,63.23
2016-02-26T09:41:07.099Z,64.27
2016-02-26T09:42:07.118Z,64.74
2016-02-26T09:43:07.323Z,65.31
2016-02-26T09:44:07.154Z,65.12
2016-02-26T09:45:07.328Z,64.55
2016-02-26T09:46:07.129Z,64.27
2016-02-26T09:47:07.193Z,64.46
2016-02-26T09:48:07.117Z,63.98
2016-02-26T09:49:07.105Z,63.7
2016-02-26T09:50:07.108Z,64.11
2016-02-26T09:51:07.111Z,63.13
2016-02-26T09:52:07.114Z,63.92
2016-02-26T09:53:07.335Z,63.92
2016-02-26T09:54:07.119Z,63.82
2016-02-26T09:55:07.340Z,63.35
2016-02-26T09:56:07.234Z,64.11
2016-02-26T09:57:07.330Z,64.2
2016-02-26T09:58:07.395Z,62.59
2016-02-26T09:59:07.132Z,62.97
2016-02-26T10:00:07.213Z,63.26
2016-02-26T10:01:07.341Z,63.64
2016-02-26T10:02:07.265Z,62.88
2016-02-26T10:03:06.439Z,63.17
2016-02-26T10:04:07.302Z,63.32
2016-02-26T10:05:07.288Z,62.5
2016-02-26T10:06:07.197Z,61.55
2016-02-26T10:07:07.232Z,62.59
2016-02-26T10:08:07.187Z,62.4
2016-02-26T10:09:07.205Z,62.94
2016-02-26T10:10:07.239Z,63.45
2016-02-26T10:11:07.133Z,62.12
2016-02-26T10:12:07.120Z,63.7
2016-02-26T10:13:07.123Z,63.82
2016-02-26T10:14:07.126Z,63.26
2016-02-26T10:15:07.113Z,63.7
2016-02-26T10:16:07.131Z,62.69
2016-02-26T10:17:07.131Z,63.26
2016-02-26T10:18:07.106Z,63.45
2016-02-26T10:19:07.096Z,63.82
2016-02-26T10:20:07.137Z,62.5
2016-02-26T10:21:07.081Z,62.69
2016-02-26T10:22:07.056Z,63.45
2016-02-26T10:23:07.055Z,63.54
2016-02-26T10:24:07.053Z,63.35
2016-02-26T10:25:07.050Z,62.5
2016-02-26T10:26:07.096Z,62.78
2016-02-26T10:27:07.048Z,62.02
2016-02-26T10:28:07.049Z,61.83
2016-02-26T10:29:07.035Z,61.36
2016-02-26T10:30:07.051Z,61.27
2016-02-26T10:31:07.052Z,61.27
2016-02-26T10:32:07.039Z,61.27
2016-02-26T10:33:07.041Z,61.55
2016-02-26T10:34:07.044Z,60.7
2016-02-26T10:35:07.045Z,61.46
2016-02-26T10:36:07.063Z,61.46
2016-02-26T10:37:07.050Z,61.65
2016-02-26T10:38:07.505Z,61.74
2016-02-26T10:39:07.038Z,61.17
2016-02-26T10:40:07.041Z,61.27
2016-02-26T10:41:07.043Z,61.55
2016-02-26T10:42:07.046Z,61.55
2016-02-26T10:43:07.049Z,61.46
2016-02-26T10:44:07.036Z,61.36
2016-02-26T10:45:07.054Z,61.36
2016-02-26T10:46:07.057Z,60.31
2016-02-26T10:47:07.044Z,60.03
2016-02-26T10:48:07.047Z,59.75
2016-02-26T10:49:07.050Z,59.56
2016-02-26T10:50:07.052Z,60.22
2016-02-26T10:51:07.056Z,57.38
2016-02-26T10:52:07.042Z,58.8
2016-02-26T10:53:07.045Z,57.28
2016-02-26T10:54:07.047Z,58.8
2016-02-26T10:55:07.050Z,57.66
2016-02-26T10:56:07.068Z,57.19
2016-02-26T10:57:07.055Z,58.8
2016-02-26T10:58:07.058Z,59.02
2016-02-26T10:59:07.061Z,58.17
2016-02-26T11:00:07.063Z,57.98
2016-02-26T11:01:07.050Z,58.83
2016-02-26T11:02:07.053Z,59.11
2016-02-26T11:03:07.055Z,58.92
2016-02-26T11:04:07.058Z,58.83
2016-02-26T11:05:07.061Z,58.92
2016-02-26T11:06:07.063Z,59.02
2016-02-26T11:07:07.066Z,58.92
2016-02-26T11:08:07.068Z,57.98
2016-02-26T11:09:07.072Z,58.36
2016-02-26T11:10:07.075Z,57.69
2016-02-26T11:11:07.062Z,57.31
2016-02-26T11:12:07.079Z,57.31
2016-02-26T11:13:07.068Z,58.54
2016-02-26T11:14:07.070Z,58.07
2016-02-26T11:15:07.088Z,58.26
2016-02-26T11:16:07.075Z,57.59
2016-02-26T11:17:07.078Z,58.07
2016-02-26T11:18:07.081Z,58.26
2016-02-26T11:19:07.067Z,56.93
2016-02-26T11:20:07.086Z,57.79
2016-02-26T11:21:07.089Z,58.07
2016-02-26T11:22:07.091Z,57.88
2016-02-26T11:23:07.078Z,58.36
2016-02-26T11:24:07.080Z,56.65
2016-02-26T11:25:10.192Z,56.36
2016-02-26T11:26:07.086Z,56.55
2016-02-26T11:27:07.120Z,55.89
2016-02-26T11:28:07.091Z,55.98
2016-02-26T11:29:07.095Z,55.89
2016-02-26T11:30:07.097Z,55.98
2016-02-26T11:31:07.163Z,55.89
2016-02-26T11:32:07.118Z,56.36
2016-02-26T11:33:07.089Z,56.55
2016-02-26T11:34:07.171Z,55.7
2016-02-26T11:35:07.094Z,56.93
2016-02-26T11:36:07.113Z,57.5
2016-02-26T11:37:07.100Z,57.69
2016-02-26T11:38:07.103Z,57.5
2016-02-26T11:39:07.106Z,57.31
2016-02-26T11:40:07.858Z,55.89
2016-02-26T11:41:07.110Z,55.22
2016-02-26T11:42:07.114Z,55.89
2016-02-26T11:43:07.132Z,55.32
2016-02-26T11:44:07.119Z,55.7
2016-02-26T11:45:07.106Z,55.79
2016-02-26T11:46:07.109Z,56.55
2016-02-26T11:47:07.127Z,57.21
2016-02-26T11:48:07.115Z,56.9
2016-02-26T11:49:07.117Z,56.55
2016-02-26T11:50:07.166Z,55.57
2016-02-26T11:51:07.123Z,55.76
2016-02-26T11:52:07.125Z,55.67
2016-02-26T11:53:07.128Z,56.05
2016-02-26T11:54:07.146Z,55.86
2016-02-26T11:55:07.134Z,56.15
2016-02-26T11:56:07.198Z,57.09
2016-02-26T11:57:07.170Z,56.24
2016-02-26T11:58:07.125Z,56.43
2016-02-26T11:59:07.144Z,56.24
2016-02-26T12:00:07.147Z,56.24
2016-02-26T12:01:07.133Z,56.15
2016-02-26T12:02:07.136Z,56.43
2016-02-26T12:03:07.139Z,57.09
2016-02-26T12:04:07.141Z,56.81
2016-02-26T12:05:07.129Z,57.38
2016-02-26T12:06:07.132Z,57.57
2016-02-26T12:07:07.150Z,57.28
2016-02-26T12:08:07.152Z,57.19
2016-02-26T12:09:07.155Z,57.28
2016-02-26T12:10:07.142Z,55.96
2016-02-26T12:11:07.145Z,56.34
2016-02-26T12:12:07.148Z,56.24
2016-02-26T12:13:07.150Z,56.34
2016-02-26T12:14:07.153Z,56.15
2016-02-26T12:15:07.156Z,55.1
2016-02-26T12:16:07.159Z,55.29
2016-02-26T12:17:07.145Z,55.1
2016-02-26T12:18:07.148Z,55.1
2016-02-26T12:19:07.151Z,55
2016-02-26T12:20:07.528Z,55.29
2016-02-26T12:21:07.156Z,54.72
2016-02-26T12:22:07.159Z,53.77
2016-02-26T12:23:07.145Z,54.25
2016-02-26T12:24:07.148Z,53.68
2016-02-26T12:25:07.151Z,54.44
2016-02-26T12:26:06.701Z,54.91
2016-02-26T12:27:07.156Z,54.63
2016-02-26T12:28:07.175Z,55.1
2016-02-26T12:29:07.162Z,55.76
2016-02-26T12:30:07.164Z,55.57
2016-02-26T12:31:07.152Z,56.05
2016-02-26T12:32:07.186Z,56.05
2016-02-26T12:33:07.158Z,55.86
2016-02-26T12:34:07.175Z,55.86
2016-02-26T12:35:07.178Z,56.24
2016-02-26T12:36:07.165Z,55.96
2016-02-26T12:37:07.183Z,55.67
2016-02-26T12:38:07.171Z,55.86
2016-02-26T12:39:07.158Z,55.86
2016-02-26T12:40:07.160Z,55.86
2016-02-26T12:41:07.163Z,55.67
2016-02-26T12:42:07.182Z,55.19
2016-02-26T12:43:07.263Z,55.86
2016-02-26T12:44:07.155Z,55.76
2016-02-26T12:45:07.174Z,55.1
2016-02-26T12:46:07.176Z,53.58
2016-02-26T12:47:07.570Z,54.82
2016-02-26T12:48:07.416Z,55.67
2016-02-26T12:49:07.184Z,56.05
2016-02-26T12:50:07.171Z,55.22
2016-02-26T12:51:07.174Z,55.51
2016-02-26T12:52:07.177Z,55.13
2016-02-26T12:53:07.179Z,54.85
2016-02-26T12:54:07.167Z,53.89
2016-02-26T12:55:07.170Z,53.42